Time;durP1;ratioP1;P1;durP2;ratioP2;P2;SDS_P1;SDS_P2;PMS_P1;PMS_P2;Temp;Humidity;BMP_temperature;BMP_pressure;BME280_temperature;BME280_humidity;BME280_pressure;Samples;Min_cycle;Max_cycle;Signal;HPM_P1;HPM_P2
2021/07/23 00:01:32;;;;;;;8.25;6.05;;;;;;;28.58;41.02;101224.75;144992;579;6002;-87
2021/07/23 00:03:58;;;;;;;7.18;6.30;;;;;;;28.58;40.97;101223.87;144992;568;6002;-85
2021/07/23 00:06:25;;;;;;;9.77;5.87;;;;;;;28.59;40.87;101220.28;144992;579;6002;-86
2021/07/23 00:08:51;;;;;;;7.82;6.70;;;;;;;28.60;41.00;101219.34;144992;599;6002;-87
2021/07/23 00:11:18;;;;;;;7.55;6.75;;;;;;;28.58;40.64;101219.41;144992;585;6002;-85
2021/07/23 00:13:44;;;;;;;7.10;5.85;;;;;;;28.58;40.74;101222.06;144992;578;6002;-86
2021/07/23 00:16:11;;;;;;;6.72;6.00;;;;;;;28.57;40.59;101212.34;144992;612;6002;-86
2021/07/23 00:18:38;;;;;;;11.15;6.32;;;;;;;28.56;40.91;101223.91;144992;686;6010;-87
2021/07/23 00:21:05;;;;;;;8.00;6.20;;;;;;;28.55;41.43;101224.81;144992;618;6002;-84
2021/07/23 00:23:31;;;;;;;7.22;6.32;;;;;;;28.56;41.04;101215.91;144992;576;6002;-86
2021/07/23 00:25:58;;;;;;;7.22;5.95;;;;;;;28.56;41.09;101218.56;144992;579;6002;-85
2021/07/23 00:28:24;;;;;;;8.13;6.40;;;;;;;28.56;41.04;101218.56;144992;709;6002;-86
2021/07/23 00:30:51;;;;;;;8.43;6.47;;;;;;;28.48;41.64;101227.81;144992;569;6002;-87
2021/07/23 00:33:17;;;;;;;9.88;6.03;;;;;;;28.40;41.31;101223.59;144992;600;6002;-87
2021/07/23 00:35:44;;;;;;;8.05;6.00;;;;;;;28.38;41.41;101221.91;144992;629;6002;-84
2021/07/23 00:38:11;;;;;;;7.30;5.68;;;;;;;28.31;41.80;101223.06;144991;564;6002;-85
2021/07/23 00:40:37;;;;;;;9.05;6.28;;;;;;;28.26;41.63;101219.72;144992;573;6002;-87
2021/07/23 00:43:04;;;;;;;8.43;6.10;;;;;;;28.17;42.24;101221.78;144992;701;6002;-85
2021/07/23 00:45:30;;;;;;;8.25;6.28;;;;;;;28.19;41.59;101211.91;144992;585;6002;-84
2021/07/23 00:48:01;;;;;;;11.07;6.65;;;;;;;28.19;42.40;101209.25;144992;563;6002;-84
2021/07/23 00:50:32;;;;;;;12.93;7.03;;;;;;;28.09;42.24;101212.31;144992;576;6002;-85
2021/07/23 00:52:59;;;;;;;9.20;6.47;;;;;;;28.02;42.64;101217.00;144992;629;6002;-86
2021/07/23 00:55:27;;;;;;;8.85;6.20;;;;;;;28.03;42.50;101208.03;144992;644;6002;-87
2021/07/23 00:57:56;;;;;;;10.02;6.82;;;;;;;27.86;42.35;101213.97;144992;632;6002;-85
2021/07/23 01:00:23;;;;;;;6.62;5.93;;;;;;;27.78;42.83;101214.22;144992;580;6002;-86
2021/07/23 01:02:52;;;;;;;8.13;5.60;;;;;;;27.79;42.67;101215.97;144992;564;6002;-86
2021/07/23 01:05:19;;;;;;;6.65;5.90;;;;;;;27.79;42.46;101215.97;144992;566;6002;-86
2021/07/23 01:07:46;;;;;;;6.95;6.12;;;;;;;27.79;42.62;101213.31;144993;578;6002;-85
2021/07/23 01:10:13;;;;;;;9.13;6.07;;;;;;;27.89;42.61;101219.19;144992;585;6002;-86
2021/07/23 01:12:40;;;;;;;6.72;6.03;;;;;;;27.94;42.31;101214.59;144993;578;6002;-86
2021/07/23 01:15:06;;;;;;;8.68;6.22;;;;;;;27.99;42.38;101214.44;144993;598;6002;-86
2021/07/23 01:17:33;;;;;;;7.37;6.45;;;;;;;28.01;42.53;101208.12;144993;665;6002;-87
2021/07/23 01:20:13;;;;;;;9.77;7.60;;;;;;;28.05;42.61;101212.41;144993;569;6002;-87
2021/07/23 01:22:41;;;;;;;9.38;7.45;;;;;;;28.09;42.78;101207.81;144993;662;6002;-87
2021/07/23 01:25:09;;;;;;;15.15;7.68;;;;;;;28.05;42.65;101200.88;144992;590;6002;-86
2021/07/23 01:27:54;;;;;;;11.88;8.48;;;;;;;28.12;42.37;101207.72;144993;622;6002;-85
2021/07/23 01:30:23;;;;;;;13.50;8.02;;;;;;;28.02;42.88;101201.84;144993;596;6002;-87
2021/07/23 01:32:50;;;;;;;12.00;7.93;;;;;;;28.00;43.30;101205.50;144993;657;6002;-87
2021/07/23 01:35:16;;;;;;;11.60;8.10;;;;;;;28.02;43.11;101201.84;144993;575;6002;-85
2021/07/23 01:37:45;;;;;;;9.00;7.55;;;;;;;28.02;42.82;101204.50;144993;590;6002;-84
2021/07/23 01:40:14;;;;;;;7.55;6.25;;;;;;;28.05;42.75;101211.53;144992;586;6002;-87
2021/07/23 01:42:41;;;;;;;8.32;5.78;;;;;;;28.05;42.92;101196.41;144992;583;6002;-87
2021/07/23 01:45:09;;;;;;;7.47;5.78;;;;;;;28.07;42.64;101200.81;144991;658;6002;-86
2021/07/23 01:47:36;;;;;;;8.32;5.80;;;;;;;28.09;42.66;101199.81;144992;600;6002;-86
2021/07/23 01:50:03;;;;;;;8.27;6.18;;;;;;;28.10;42.53;101195.38;144992;732;6002;-87
2021/07/23 01:52:29;;;;;;;8.70;5.90;;;;;;;28.10;42.38;101196.22;144993;592;6002;-88
2021/07/23 01:54:56;;;;;;;9.60;6.07;;;;;;;28.11;42.52;101198.00;144993;598;6002;-86
2021/07/23 01:57:22;;;;;;;8.30;5.97;;;;;;;28.10;42.37;101193.56;144993;583;6002;-88
2021/07/23 01:59:49;;;;;;;8.32;5.90;;;;;;;28.12;41.95;101191.69;144993;724;6002;-85
2021/07/23 02:02:15;;;;;;;7.78;5.85;;;;;;;28.13;42.02;101185.44;144993;631;6002;-86
2021/07/23 02:04:42;;;;;;;8.75;5.45;;;;;;;28.10;41.90;101184.69;144993;595;6002;-86
2021/07/23 02:07:08;;;;;;;7.28;5.28;;;;;;;28.09;41.93;101186.47;144993;592;6002;-86
2021/07/23 02:09:35;;;;;;;8.15;5.32;;;;;;;28.11;41.83;101178.41;144992;627;6002;-86
2021/07/23 02:12:01;;;;;;;6.78;5.10;;;;;;;28.11;42.04;101178.41;144993;631;6002;-86
2021/07/23 02:14:29;;;;;;;6.03;5.07;;;;;;;28.13;42.02;101179.25;144993;588;6002;-85
2021/07/23 02:16:57;;;;;;;6.93;5.82;;;;;;;28.14;41.99;101175.63;144993;679;6002;-86
2021/07/23 02:19:24;;;;;;;7.10;5.60;;;;;;;28.15;41.74;101177.41;144993;725;6002;-84
2021/07/23 02:21:50;;;;;;;8.85;5.50;;;;;;;28.16;41.70;101173.81;144992;621;6002;-85
2021/07/23 02:24:16;;;;;;;5.70;5.20;;;;;;;28.17;41.66;101179.09;144993;723;6002;-86
2021/07/23 02:26:43;;;;;;;5.60;4.80;;;;;;;28.18;41.39;101188.81;144993;588;6002;-88
2021/07/23 02:29:10;;;;;;;5.25;4.75;;;;;;;28.15;41.44;101180.91;144993;564;6002;-86
2021/07/23 02:31:37;;;;;;;6.43;4.75;;;;;;;28.12;41.42;101180.16;144993;655;6002;-86
2021/07/23 02:34:04;;;;;;;6.50;5.12;;;;;;;28.13;41.35;101173.91;144993;633;6002;-85
2021/07/23 02:36:30;;;;;;;6.12;4.65;;;;;;;28.11;41.24;101179.31;144993;588;6002;-87
2021/07/23 02:38:57;;;;;;;7.65;5.07;;;;;;;28.09;41.36;101177.59;144993;658;6002;-87
2021/07/23 02:41:23;;;;;;;7.37;4.62;;;;;;;28.05;41.45;101179.53;144993;590;6002;-87
2021/07/23 02:43:49;;;;;;;6.03;5.05;;;;;;;28.03;41.40;101182.25;144993;718;6002;-86
2021/07/23 02:46:17;;;;;;;7.00;4.62;;;;;;;28.03;41.37;101176.91;144993;571;6002;-87
2021/07/23 02:48:43;;;;;;;6.43;4.68;;;;;;;28.05;41.18;101184.88;144994;628;5002;-87
2021/07/23 02:51:11;;;;;;;8.40;4.87;;;;;;;28.03;41.21;101179.59;144994;618;5002;-86
2021/07/23 02:53:37;;;;;;;8.60;5.37;;;;;;;28.00;41.29;101178.81;144994;751;5002;-87
2021/07/23 02:56:04;;;;;;;10.68;6.85;;;;;;;27.95;41.43;101180.75;144994;565;5002;-86
2021/07/23 02:58:31;;;;;;;13.88;8.05;;;;;;;27.86;42.18;101177.47;144994;591;5002;-86
2021/07/23 03:00:57;;;;;;;15.73;7.90;;;;;;;27.83;41.84;101177.56;144994;656;5002;-86
2021/07/23 03:03:24;;;;;;;14.32;8.07;;;;;;;27.85;42.17;101182.84;144994;575;5002;-85
2021/07/23 03:05:50;;;;;;;16.17;8.18;;;;;;;27.85;41.91;101185.53;144994;590;5002;-85
2021/07/23 03:08:17;;;;;;;18.05;8.63;;;;;;;27.81;42.30;101198.09;144994;738;5002;-85
2021/07/23 03:10:44;;;;;;;17.05;8.35;;;;;;;27.81;42.69;101191.91;144994;564;5002;-85
2021/07/23 03:13:11;;;;;;;11.63;7.20;;;;;;;27.83;42.69;101196.25;144994;692;5002;-84
2021/07/23 03:15:37;;;;;;;12.60;6.35;;;;;;;27.82;42.52;101193.63;144994;569;5002;-84
2021/07/23 03:18:03;;;;;;;14.25;7.55;;;;;;;27.82;42.44;101204.31;144994;618;5002;-87
2021/07/23 03:20:30;;;;;;;16.23;7.18;;;;;;;27.74;42.46;101193.03;144994;582;5002;-85
2021/07/23 03:22:56;;;;;;;13.10;7.37;;;;;;;27.66;42.77;101196.84;144994;569;5002;-86
2021/07/23 03:25:23;;;;;;;12.40;7.20;;;;;;;27.65;43.09;101196.91;144994;569;5002;-85
2021/07/23 03:27:49;;;;;;;16.95;8.05;;;;;;;27.65;42.92;101200.44;144994;716;5002;-86
2021/07/23 03:30:16;;;;;;;17.83;8.27;;;;;;;27.65;43.06;101202.25;144994;593;5002;-84
2021/07/23 03:32:42;;;;;;;12.25;7.60;;;;;;;27.65;42.97;101203.09;144994;616;5003;-86
2021/07/23 03:35:09;;;;;;;19.85;8.48;;;;;;;27.66;43.07;101204.84;144993;583;5002;-85
2021/07/23 03:37:35;;;;;;;13.45;8.30;;;;;;;27.69;43.19;101203.84;144994;593;5002;-84
2021/07/23 03:40:03;;;;;;;13.80;9.23;;;;;;;27.72;43.06;101201.09;144994;703;5002;-86
2021/07/23 03:42:37;;;;;;;16.95;9.57;;;;;;;27.77;43.42;101207.13;144994;599;5002;-85
2021/07/23 03:45:06;;;;;;;21.67;11.05;;;;;;;27.64;44.04;101198.69;144994;580;5002;-86
2021/07/23 03:47:32;;;;;;;21.20;13.62;;;;;;;27.74;43.79;101199.22;144994;577;5002;-86
2021/07/23 03:49:59;;;;;;;27.90;14.98;;;;;;;27.72;43.63;101193.09;144994;604;5008;-86
2021/07/23 03:52:25;;;;;;;27.58;16.45;;;;;;;27.72;43.70;101203.75;144994;600;5002;-88
2021/07/23 03:54:52;;;;;;;29.00;16.87;;;;;;;27.63;43.94;101220.94;144994;744;5002;-86
2021/07/23 03:57:18;;;;;;;33.05;17.80;;;;;;;27.58;44.33;101228.22;144994;582;5002;-86
2021/07/23 03:59:45;;;;;;;36.75;16.35;;;;;;;27.59;44.15;101231.78;144994;609;5002;-86
2021/07/23 04:02:12;;;;;;;25.62;14.55;;;;;;;27.62;43.97;101229.00;144994;622;5002;-87
2021/07/23 04:04:38;;;;;;;36.92;14.23;;;;;;;27.62;44.06;101229.00;144994;696;5002;-85
2021/07/23 04:07:05;;;;;;;30.12;12.52;;;;;;;27.65;43.91;101229.75;144994;579;5002;-86
2021/07/23 04:09:31;;;;;;;16.10;9.05;;;;;;;27.53;43.99;101229.31;144994;593;5002;-86
2021/07/23 04:11:58;;;;;;;18.95;9.35;;;;;;;27.51;44.00;101235.53;144994;583;5002;-87
2021/07/23 04:14:24;;;;;;;23.92;9.32;;;;;;;27.54;44.08;101233.69;144994;593;5002;-86
2021/07/23 04:16:51;;;;;;;32.00;10.27;;;;;;;27.51;44.31;101232.03;144994;762;5002;-85
2021/07/23 04:19:17;;;;;;;16.83;9.02;;;;;;;27.54;44.52;101236.34;144994;672;5002;-86
2021/07/23 04:21:44;;;;;;;17.33;8.20;;;;;;;27.58;43.99;101238.00;144994;589;5002;-84
2021/07/23 04:24:11;;;;;;;14.55;9.38;;;;;;;27.58;44.02;101241.53;144994;563;5002;-86
2021/07/23 04:26:37;;;;;;;16.80;9.43;;;;;;;27.60;43.82;101242.38;144994;598;5002;-86
2021/07/23 04:29:04;;;;;;;15.60;9.52;;;;;;;27.49;44.00;101242.72;144994;571;5002;-82
2021/07/23 04:31:30;;;;;;;20.12;10.52;;;;;;;27.50;43.85;101255.16;144994;575;5002;-87
2021/07/23 04:33:58;;;;;;;16.55;9.82;;;;;;;27.52;43.75;101252.41;144994;788;5002;-85
2021/07/23 04:36:24;;;;;;;14.70;10.05;;;;;;;27.55;44.13;101259.44;144993;590;5002;-86
2021/07/23 04:38:51;;;;;;;16.77;9.48;;;;;;;27.51;44.07;101259.53;144993;658;5002;-88
2021/07/23 04:41:17;;;;;;;18.02;11.20;;;;;;;27.47;44.07;101263.25;144994;634;5002;-85
2021/07/23 04:43:44;;;;;;;19.60;10.90;;;;;;;27.51;44.11;101259.53;144994;583;5002;-86
2021/07/23 04:46:10;;;;;;;17.17;10.43;;;;;;;27.51;43.79;101267.53;144994;583;5002;-85
2021/07/23 04:48:37;;;;;;;20.15;10.40;;;;;;;27.50;44.26;101273.81;144994;594;5002;-83
2021/07/23 04:51:04;;;;;;;15.90;9.90;;;;;;;27.55;44.22;101264.78;144994;585;5002;-86
2021/07/23 04:53:31;;;;;;;15.07;8.90;;;;;;;27.56;44.44;101270.06;144994;733;5002;-86
2021/07/23 04:56:05;;;;;;;16.35;8.60;;;;;;;27.57;44.41;101270.94;144994;574;5002;-85
2021/07/23 04:58:32;;;;;;;17.40;8.45;;;;;;;27.55;44.43;101264.78;144994;576;5002;-86
2021/07/23 05:00:59;;;;;;;11.85;8.02;;;;;;;27.57;44.44;101258.50;144994;594;5015;-85
2021/07/23 05:03:38;;;;;;;14.87;8.00;;;;;;;27.59;44.43;101261.09;144994;755;5002;-86
2021/07/23 05:06:06;;;;;;;13.15;7.28;;;;;;;27.61;44.57;101256.59;144994;628;5002;-85
2021/07/23 05:08:34;;;;;;;14.07;6.68;;;;;;;27.66;44.68;101270.63;144994;576;5002;-87
2021/07/23 05:11:01;;;;;;;12.15;7.35;;;;;;;27.69;44.59;101263.38;144994;678;5002;-86
2021/07/23 05:13:30;;;;;;;12.30;7.68;;;;;;;27.74;44.58;101265.91;144994;572;5002;-86
2021/07/23 05:15:57;;;;;;;14.05;8.05;;;;;;;27.79;44.72;101263.97;144994;582;5002;-86
2021/07/23 05:18:25;;;;;;;14.90;7.35;;;;;;;27.86;44.82;101276.16;144994;596;5002;-87
2021/07/23 05:20:51;;;;;;;12.50;7.55;;;;;;;27.92;44.65;101269.78;144994;748;5002;-85
2021/07/23 05:23:18;;;;;;;14.35;7.40;;;;;;;28.00;44.59;101267.75;144994;642;5002;-85
2021/07/23 05:25:44;;;;;;;17.25;8.35;;;;;;;28.10;44.60;101256.75;144994;595;5002;-84
2021/07/23 05:28:11;;;;;;;12.93;7.70;;;;;;;28.14;46.03;101261.94;144994;594;5002;-87
2021/07/23 05:30:38;;;;;;;12.18;7.62;;;;;;;28.17;44.69;101259.16;144994;600;5002;-85
2021/07/23 05:33:05;;;;;;;15.40;7.72;;;;;;;28.28;44.69;101260.56;144994;577;5002;-86
2021/07/23 05:35:31;;;;;;;13.10;6.95;;;;;;;28.35;44.47;101262.97;144994;588;5002;-86
2021/07/23 05:37:57;;;;;;;10.52;7.15;;;;;;;28.46;44.38;101262.56;144994;563;5002;-85
2021/07/23 05:40:24;;;;;;;10.48;7.55;;;;;;;28.55;44.32;101272.88;144994;577;5002;-84
2021/07/23 05:42:53;;;;;;;12.35;7.62;;;;;;;28.62;44.35;101272.69;144994;565;5002;-85
2021/07/23 05:45:20;;;;;;;13.20;6.93;;;;;;;28.65;44.23;101269.91;144994;571;5002;-85
2021/07/23 05:47:47;;;;;;;10.05;6.93;;;;;;;28.53;44.79;101271.22;144994;613;5002;-85
2021/07/23 05:50:13;;;;;;;11.05;7.00;;;;;;;28.35;44.86;101270.09;144994;581;5002;-87
2021/07/23 05:52:40;;;;;;;8.50;6.55;;;;;;;28.36;44.88;101274.50;144994;577;5002;-85
2021/07/23 05:55:07;;;;;;;9.27;6.10;;;;;;;28.32;44.74;101268.41;144994;644;5002;-86
2021/07/23 05:57:33;;;;;;;11.27;5.68;;;;;;;28.34;44.85;101271.88;144994;689;5002;-86
2021/07/23 06:00:00;;;;;;;18.45;6.20;;;;;;;28.39;45.00;101269.06;144994;743;5002;-87
2021/07/23 06:02:26;;;;;;;7.95;5.35;;;;;;;28.18;45.62;101266.22;144994;569;5002;-88
2021/07/23 06:04:53;;;;;;;11.90;5.75;;;;;;;28.10;45.55;101264.75;144994;614;5002;-87
2021/07/23 06:07:20;;;;;;;10.35;5.60;;;;;;;28.10;45.76;101268.28;144994;664;5002;-87
2021/07/23 06:09:47;;;;;;;6.60;5.22;;;;;;;28.10;45.81;101268.28;144994;582;5002;-86
2021/07/23 06:12:13;;;;;;;7.80;5.15;;;;;;;28.15;45.82;101270.81;144994;630;5002;-85
2021/07/23 06:14:39;;;;;;;9.05;5.32;;;;;;;28.07;45.87;101272.88;144994;575;5002;-87
2021/07/23 06:17:06;;;;;;;9.55;6.75;;;;;;;28.11;45.97;101267.37;144994;590;5002;-86
2021/07/23 06:19:36;;;;;;;14.43;7.60;;;;;;;28.18;45.96;101274.22;144994;601;5002;-82
2021/07/23 06:22:04;;;;;;;10.32;6.75;;;;;;;28.18;45.91;101271.56;144994;585;5002;-81
2021/07/23 06:24:30;;;;;;;13.70;8.70;;;;;;;28.24;46.00;101270.47;144994;649;5002;-82
2021/07/23 06:26:57;;;;;;;20.77;15.73;;;;;;;28.30;45.93;101272.03;144994;742;5002;-81
2021/07/23 06:29:25;;;;;;;15.13;11.68;;;;;;;28.36;45.86;101274.50;144994;571;5002;-79
2021/07/23 06:31:51;;;;;;;15.05;11.00;;;;;;;28.40;45.40;101273.47;144994;665;5002;-81
2021/07/23 06:34:18;;;;;;;18.77;15.02;;;;;;;28.42;45.55;101275.13;144994;582;5002;-80
2021/07/23 06:36:44;;;;;;;13.80;10.15;;;;;;;28.45;45.63;101271.50;144994;703;5002;-79
2021/07/23 06:39:11;;;;;;;14.85;9.35;;;;;;;28.52;45.52;101280.16;144993;588;5002;-81
2021/07/23 06:41:37;;;;;;;8.45;6.90;;;;;;;28.57;45.75;101280.84;144994;573;5002;-83
2021/07/23 06:44:04;;;;;;;10.98;7.05;;;;;;;28.60;45.47;101286.09;144994;627;5002;-80
2021/07/23 06:46:31;;;;;;;7.90;6.28;;;;;;;28.54;45.75;101284.53;144994;598;5002;-80
2021/07/23 06:48:57;;;;;;;9.07;6.40;;;;;;;28.56;45.53;101282.66;144994;722;5002;-79
2021/07/23 06:51:24;;;;;;;10.02;6.87;;;;;;;28.61;45.95;101281.66;144994;600;5002;-81
2021/07/23 06:53:50;;;;;;;12.45;7.28;;;;;;;28.67;45.55;101284.09;144994;590;5003;-80
2021/07/23 06:56:17;;;;;;;12.10;7.55;;;;;;;28.73;45.52;101273.16;144994;594;5002;-80
2021/07/23 06:58:43;;;;;;;11.40;7.50;;;;;;;28.78;45.39;101271.22;144994;571;5002;-80
2021/07/23 07:01:09;;;;;;;7.82;6.65;;;;;;;28.82;45.45;101269.28;144994;587;5002;-80
2021/07/23 07:03:36;;;;;;;12.70;6.60;;;;;;;28.83;45.28;101268.38;144994;570;5002;-80
2021/07/23 07:06:04;;;;;;;9.23;6.70;;;;;;;28.63;45.24;101263.78;144994;571;5002;-80
2021/07/23 07:08:30;;;;;;;12.52;7.00;;;;;;;28.51;45.45;101259.75;144994;570;5002;-80
2021/07/23 07:10:57;;;;;;;11.40;7.53;;;;;;;28.54;45.58;101267.59;144994;589;5002;-80
2021/07/23 07:13:24;;;;;;;11.32;7.60;;;;;;;28.61;45.54;101270.97;144994;565;5002;-80
2021/07/23 07:15:50;;;;;;;11.02;6.60;;;;;;;28.69;45.32;101276.91;144994;563;5002;-81
2021/07/23 07:18:17;;;;;;;16.77;9.77;;;;;;;28.74;45.12;101266.91;144994;597;5002;-79
2021/07/23 07:20:43;;;;;;;22.60;11.57;;;;;;;28.69;45.83;101267.09;144994;687;4567;-81
2021/07/23 07:23:11;;;;;;;20.48;13.48;;;;;;;28.84;45.44;101265.66;144994;642;4572;-81
2021/07/23 07:25:43;;;;;;;21.77;12.30;;;;;;;29.04;45.35;101262.19;144994;573;4572;-82
2021/07/23 07:28:09;;;;;;;17.67;10.70;;;;;;;29.30;45.04;101268.34;144992;575;6002;-82
2021/07/23 07:30:39;;;;;;;14.85;9.52;;;;;;;29.55;44.40;101268.22;144992;575;6002;-81
2021/07/23 07:33:05;;;;;;;15.15;8.73;;;;;;;29.31;43.51;101265.59;144992;638;6002;-80
2021/07/23 07:35:32;;;;;;;16.75;10.18;;;;;;;29.43;44.79;101274.06;144992;563;6002;-81
2021/07/23 07:37:58;;;;;;;14.80;8.98;;;;;;;29.48;44.41;101266.75;144992;585;6002;-81
2021/07/23 07:40:24;;;;;;;11.23;7.97;;;;;;;29.52;44.32;101264.81;144992;594;6002;-80
2021/07/23 07:42:51;;;;;;;14.93;8.65;;;;;;;29.56;44.24;101266.41;144992;579;6002;-80
2021/07/23 07:45:17;;;;;;;15.30;11.07;;;;;;;29.59;44.22;101259.16;144992;568;6002;-81
2021/07/23 07:47:44;;;;;;;12.50;8.00;;;;;;;29.49;43.67;101255.97;144992;597;6002;-81
2021/07/23 07:50:11;;;;;;;12.68;6.22;;;;;;;29.40;44.41;101263.47;144991;628;6002;-79
2021/07/23 07:52:38;;;;;;;9.30;7.35;;;;;;;29.37;44.24;101258.28;144992;571;6002;-80
2021/07/23 07:55:05;;;;;;;11.77;7.15;;;;;;;29.37;43.88;101263.63;144992;575;6002;-81
2021/07/23 07:57:31;;;;;;;9.75;6.12;;;;;;;29.36;44.05;101261.88;144992;594;6002;-79
2021/07/23 07:59:59;;;;;;;18.35;11.27;;;;;;;29.38;44.10;101260.91;144992;663;6002;-80
2021/07/23 08:02:25;;;;;;;14.80;9.13;;;;;;;29.43;43.94;101266.03;144992;569;6002;-81
2021/07/23 08:04:52;;;;;;;20.00;13.13;;;;;;;29.41;44.20;101263.41;144992;688;6002;-80
2021/07/23 08:07:21;;;;;;;12.70;6.85;;;;;;;29.30;43.98;101265.66;144992;636;6002;-81
2021/07/23 08:09:52;;;;;;;6.80;5.00;;;;;;;29.28;44.42;101259.50;144992;578;6002;-80
2021/07/23 08:12:20;;;;;;;7.47;5.07;;;;;;;29.33;44.04;101251.31;144992;584;6002;-81
2021/07/23 08:14:47;;;;;;;6.45;4.95;;;;;;;29.52;43.86;101256.78;144992;584;6002;-79
2021/07/23 08:17:14;;;;;;;6.70;5.03;;;;;;;29.58;43.05;101253.84;144992;623;6002;-80
2021/07/23 08:19:41;;;;;;;8.02;5.35;;;;;;;29.62;43.80;101253.66;144992;564;6002;-82
2021/07/23 08:22:09;;;;;;;9.27;6.00;;;;;;;29.48;43.41;101253.38;144992;577;6002;-80
2021/07/23 08:24:36;;;;;;;8.23;5.07;;;;;;;29.15;43.70;101253.75;144992;564;6002;-82
2021/07/23 08:27:03;;;;;;;8.30;4.97;;;;;;;29.16;43.58;101255.50;144992;606;6002;-81
2021/07/23 08:29:30;;;;;;;6.87;4.82;;;;;;;29.29;44.46;101251.44;144992;571;6002;-81
2021/07/23 08:32:05;;;;;;;7.32;5.10;;;;;;;29.60;43.59;101255.50;144992;589;6002;-80
2021/07/23 08:34:32;;;;;;;10.45;5.87;;;;;;;29.58;43.75;101257.37;144992;582;6002;-81
2021/07/23 08:36:58;;;;;;;7.28;5.75;;;;;;;29.51;44.26;101247.91;144992;573;6002;-79
2021/07/23 08:39:25;;;;;;;5.85;4.65;;;;;;;29.77;43.48;101248.59;144992;564;6002;-81
2021/07/23 08:41:52;;;;;;;5.97;4.00;;;;;;;29.79;43.54;101255.66;144992;604;6002;-81
2021/07/23 08:44:18;;;;;;;6.32;3.42;;;;;;;29.83;43.59;101256.41;144992;577;6002;-82
2021/07/23 08:46:45;;;;;;;6.28;3.70;;;;;;;29.80;43.38;101264.56;144992;564;6002;-81
2021/07/23 08:49:14;;;;;;;8.15;3.50;;;;;;;29.85;43.10;101251.84;144992;568;6002;-82
2021/07/23 08:51:41;;;;;;;7.40;3.85;;;;;;;29.79;42.73;101252.97;144992;579;6002;-82
2021/07/23 08:54:07;;;;;;;4.87;3.33;;;;;;;29.81;42.74;101252.91;144992;581;6002;-80
2021/07/23 08:56:34;;;;;;;6.65;3.55;;;;;;;29.73;43.41;101244.31;144992;595;6002;-83
2021/07/23 08:59:00;;;;;;;5.60;3.65;;;;;;;29.73;43.85;101244.31;144992;580;6002;-82
2021/07/23 09:01:27;;;;;;;7.43;3.85;;;;;;;29.75;43.78;101243.31;144992;645;6002;-82
2021/07/23 09:03:55;;;;;;;7.40;3.28;;;;;;;29.77;43.96;101243.25;144992;689;6002;-79
2021/07/23 09:06:23;;;;;;;5.55;3.30;;;;;;;29.71;43.50;101244.38;144992;573;6002;-81
2021/07/23 09:08:52;;;;;;;4.30;3.33;;;;;;;29.62;43.77;101242.97;144992;584;6002;-81
2021/07/23 09:11:28;;;;;;;5.07;3.25;;;;;;;29.73;43.17;101247.84;144992;608;6002;-83
2021/07/23 09:14:13;;;;;;;4.68;3.42;;;;;;;29.67;43.20;101240.97;144992;603;6002;-84
2021/07/23 09:16:40;;;;;;;5.45;3.50;;;;;;;29.77;42.84;101227.19;144992;574;6004;-84
2021/07/23 09:19:10;;;;;;;5.05;2.87;;;;;;;29.82;42.51;101228.75;144992;640;6004;-83
2021/07/23 09:21:38;;;;;;;4.62;2.70;;;;;;;29.82;42.20;101228.75;144992;565;6004;-82
2021/07/23 09:24:06;;;;;;;5.55;3.00;;;;;;;29.74;42.79;101228.19;144992;595;6004;-82
2021/07/23 09:26:41;;;;;;;6.55;2.78;;;;;;;29.61;42.16;101230.50;144992;569;6004;-84
2021/07/23 09:29:08;;;;;;;5.25;2.55;;;;;;;29.46;42.29;101225.81;144997;653;6004;-82
2021/07/23 09:31:35;;;;;;;7.57;2.72;;;;;;;29.43;42.92;101217.91;144992;572;6002;-83
2021/07/23 09:34:05;;;;;;;5.00;2.80;;;;;;;29.12;43.82;101221.81;144992;683;6002;-82
2021/07/23 09:36:34;;;;;;;4.65;2.95;;;;;;;29.07;43.67;101229.13;144992;634;6002;-82
2021/07/23 09:39:04;;;;;;;7.68;3.00;;;;;;;29.06;43.56;101227.38;144992;654;6002;-82
2021/07/23 09:41:33;;;;;;;5.43;2.60;;;;;;;29.11;43.38;101228.06;144992;581;6002;-81
2021/07/23 09:44:02;;;;;;;4.68;3.00;;;;;;;28.88;43.61;101226.31;144992;575;6002;-83
2021/07/23 09:46:34;;;;;;;5.12;2.72;;;;;;;28.85;43.63;101221.94;144992;612;6002;-84
2021/07/23 09:49:19;;;;;;;5.87;2.62;;;;;;;29.01;43.46;101227.56;144992;590;6002;-83
2021/07/23 09:51:46;;;;;;;4.85;3.17;;;;;;;28.89;44.21;101231.59;144992;599;6002;-83
2021/07/23 09:54:13;;;;;;;5.72;3.10;;;;;;;28.87;44.04;101220.13;144992;564;6002;-82
2021/07/23 09:56:39;;;;;;;4.90;3.20;;;;;;;28.89;43.89;101212.00;144992;575;6002;-82
2021/07/23 09:59:29;;;;;;;6.12;3.28;;;;;;;28.84;44.88;101219.34;144992;564;6002;-82
2021/07/23 10:02:01;;;;;;;4.70;3.28;;;;;;;28.92;45.04;101215.44;144992;578;6004;-84
2021/07/23 10:04:36;;;;;;;7.03;3.42;;;;;;;28.94;44.53;101215.41;144992;574;6004;-81
2021/07/23 10:07:09;;;;;;;5.85;3.30;;;;;;;29.11;44.71;101220.94;144992;567;6004;-83
2021/07/23 10:09:39;;;;;;;4.72;3.20;;;;;;;29.13;44.77;101204.84;144992;568;6004;-82
2021/07/23 10:12:09;;;;;;;4.93;3.05;;;;;;;29.28;44.29;101211.38;144992;572;6004;-83
2021/07/23 10:14:40;;;;;;;3.90;2.87;;;;;;;29.37;44.11;101200.31;144992;599;6004;-81
2021/07/23 10:17:08;;;;;;;4.85;3.10;;;;;;;29.37;44.12;101212.84;144992;567;6004;-82
2021/07/23 10:19:37;;;;;;;5.07;3.10;;;;;;;29.43;44.35;101210.78;144992;567;6004;-82
2021/07/23 10:22:05;;;;;;;4.78;3.20;;;;;;;29.41;43.63;101209.09;144992;609;6004;-83
2021/07/23 10:24:36;;;;;;;5.50;2.97;;;;;;;29.47;44.16;101203.47;144992;670;6004;-81
2021/07/23 10:27:07;;;;;;;3.78;2.83;;;;;;;29.49;44.29;101207.84;144992;668;6004;-81
2021/07/23 10:29:48;;;;;;;5.25;3.03;;;;;;;29.48;44.18;101202.56;144992;592;6004;-84
2021/07/23 10:32:34;;;;;;;4.72;3.03;;;;;;;29.44;44.85;101192.91;144992;712;6004;-84
2021/07/23 10:35:36;;;;;;;6.40;3.10;;;;;;;29.39;44.69;101197.59;144992;567;6004;-82
2021/07/23 10:38:04;;;;;;;4.65;3.08;;;;;;;29.35;44.66;101198.63;144992;713;6002;-83
2021/07/23 10:40:36;;;;;;;5.15;3.12;;;;;;;29.33;44.66;101192.50;144992;611;6002;-81
2021/07/23 10:43:02;;;;;;;6.55;3.12;;;;;;;29.24;44.16;101191.06;144992;604;6002;-81
2021/07/23 10:45:48;;;;;;;6.18;3.20;;;;;;;29.08;44.50;101186.31;144992;570;6002;-82
2021/07/23 10:48:45;;;;;;;8.00;3.33;;;;;;;29.12;44.70;101181.72;144992;577;6004;-82
2021/07/23 10:51:52;;;;;;;8.20;3.20;;;;;;;29.18;44.34;101176.13;144992;714;6002;-82
2021/07/23 10:54:24;;;;;;;6.93;3.33;;;;;;;29.20;44.17;101176.94;144992;564;6002;-81
2021/07/23 10:57:18;;;;;;;4.07;2.92;;;;;;;29.29;43.91;101173.03;144991;684;6002;-82
2021/07/23 10:59:52;;;;;;;7.30;2.90;;;;;;;29.25;44.17;101177.62;144992;566;6005;-82
2021/07/23 11:02:42;;;;;;;6.62;3.00;;;;;;;29.29;43.41;101173.03;144992;600;6004;-83
2021/07/23 11:05:21;;;;;;;6.53;2.78;;;;;;;29.41;43.52;101177.84;144992;572;6002;-80
2021/07/23 11:07:55;;;;;;;3.45;2.80;;;;;;;29.34;43.70;101168.38;144992;571;6004;-81
2021/07/23 11:10:23;;;;;;;9.63;3.20;;;;;;;29.42;43.11;101174.25;144992;567;6004;-83
2021/07/23 11:12:49;;;;;;;6.97;3.25;;;;;;;29.33;43.43;101171.97;144992;614;6004;-81
2021/07/23 11:15:16;;;;;;;5.53;3.30;;;;;;;29.54;43.26;101170.22;144992;588;6004;-82
2021/07/23 11:17:54;;;;;;;4.50;2.87;;;;;;;29.68;42.75;101166.91;144992;562;6004;-82
2021/07/23 11:20:27;;;;;;;4.37;2.78;;;;;;;29.78;41.71;101170.06;144992;581;6004;-80
2021/07/23 11:22:53;;;;;;;3.95;2.75;;;;;;;29.54;42.50;101170.22;144992;614;6004;-82
2021/07/23 11:25:20;;;;;;;8.27;2.90;;;;;;;29.63;42.29;101160.91;144992;680;6004;-82
2021/07/23 11:27:51;;;;;;;5.78;2.83;;;;;;;29.63;42.15;101167.12;144992;575;6004;-83
2021/07/23 11:30:23;;;;;;;7.80;3.05;;;;;;;29.76;42.30;101163.91;144992;599;6004;-80
2021/07/23 11:32:55;;;;;;;4.85;2.62;;;;;;;29.99;40.65;101165.63;144992;600;6004;-82
2021/07/23 11:35:26;;;;;;;5.15;2.60;;;;;;;29.99;40.73;101165.63;144992;579;6004;-82